Time;durP1;ratioP1;P1;durP2;ratioP2;P2;SDS_P1;SDS_P2;PMS_P1;PMS_P2;Temp;Humidity;BMP_temperature;BMP_pressure;BME280_temperature;BME280_humidity;BME280_pressure;Samples;Min_cycle;Max_cycle;Signal;HPM_P1;HPM_P2
2023/11/07 00:00:39;;;;;;;;;;;;;;;9.39;97.28;99921.66;5028263;28;20368;-75
2023/11/07 00:03:06;;;;;;;;;;;;;;;9.43;97.28;99922.31;5033910;28;19926;-76
2023/11/07 00:05:33;;;;;;;;;;;;;;;9.42;97.74;99932.94;5043296;28;19925;-78
2023/11/07 00:08:01;;;;;;;;;;;;;;;9.42;97.55;99922.44;5019703;28;20285;-76
2023/11/07 00:10:28;;;;;;;;;;;;;;;9.42;97.88;99943.44;5015121;28;19929;-77
2023/11/07 00:12:56;;;;;;;;;;;;;;;9.41;98.11;99929.47;5027245;28;20380;-78
2023/11/07 00:15:25;;;;;;;;;;;;;;;9.39;98.15;99928.72;5014549;28;20397;-81
2023/11/07 00:17:53;;;;;;;;;;;;;;;9.33;97.96;99940.47;5016567;28;20016;-81
2023/11/07 00:20:20;;;;;;;;;;;;;;;9.32;98.11;99956.31;5035961;28;19937;-80
2023/11/07 00:22:47;;;;;;;;;;;;;;;9.32;98.01;99943.16;5031576;28;19938;-79
2023/11/07 00:25:14;;;;;;;;;;;;;;;9.25;98.74;99955.88;5033330;28;19929;-76
2023/11/07 00:27:41;;;;;;;;;;;;;;;9.23;98.64;99947.25;5046512;28;19929;-74
2023/11/07 00:30:10;;;;;;;;;;;;;;;9.21;99.12;99950.91;5028611;28;19975;-78
2023/11/07 00:32:37;;;;;;;;;;;;;;;9.16;99.52;99953.84;5031263;28;20451;-75
2023/11/07 00:35:04;;;;;;;;;;;;;;;9.16;99.75;99956.47;5041403;28;20299;-72
2023/11/07 00:37:32;;;;;;;;;;;;;;;9.12;99.83;99968.09;5010928;28;19963;-73
2023/11/07 00:39:59;;;;;;;;;;;;;;;9.10;100.00;99962.94;5012724;28;19930;-74
2023/11/07 00:42:26;;;;;;;;;;;;;;;9.10;100.00;99976.09;5026930;28;19933;-73
2023/11/07 00:44:53;;;;;;;;;;;;;;;9.04;100.00;99976.44;5027914;28;19925;-74
2023/11/07 00:47:21;;;;;;;;;;;;;;;9.04;100.00;99983.47;5032802;28;19925;-73
2023/11/07 00:49:48;;;;;;;;;;;;;;;9.00;100.00;99982.81;5036139;28;20246;-74
2023/11/07 00:52:15;;;;;;;;;;;;;;;8.99;100.00;99991.66;5051400;28;19925;-73
2023/11/07 00:54:44;;;;;;;;;;;;;;;8.94;100.00;99987.63;5035766;28;19979;-73
2023/11/07 00:57:11;;;;;;;;;;;;;;;8.86;100.00;99991.56;5026720;28;20321;-75
2023/11/07 00:59:38;;;;;;;;;;;;;;;8.83;100.00;99998.81;5012952;28;19948;-72
2023/11/07 01:02:06;;;;;;;;;;;;;;;8.80;100.00;99996.38;5013943;28;19925;-81
2023/11/07 01:04:33;;;;;;;;;;;;;;;8.76;100.00;99997.47;5034261;28;19932;-78
2023/11/07 01:07:00;;;;;;;;;;;;;;;8.71;100.00;100004.81;5017365;28;19933;-71
2023/11/07 01:09:27;;;;;;;;;;;;;;;8.67;100.00;100004.13;5013047;28;20325;-73
2023/11/07 01:11:54;;;;;;;;;;;;;;;8.65;100.00;99995.53;5013063;28;20355;-72
2023/11/07 01:14:21;;;;;;;;;;;;;;;8.65;100.00;100002.56;5025356;28;19984;-72
2023/11/07 01:16:49;;;;;;;;;;;;;;;8.62;100.00;99999.16;5026377;28;19982;-73
2023/11/07 01:19:16;;;;;;;;;;;;;;;8.57;100.00;100005.63;5033385;28;19932;-72
2023/11/07 01:21:44;;;;;;;;;;;;;;;8.55;100.00;100010.13;5034061;28;19960;-73
2023/11/07 01:24:11;;;;;;;;;;;;;;;8.53;100.00;100015.47;5030649;28;20348;-76
2023/11/07 01:26:38;;;;;;;;;;;;;;;8.50;100.00;100020.03;5035884;28;19932;-73
2023/11/07 01:29:05;;;;;;;;;;;;;;;8.47;100.00;100013.22;5037879;28;19929;-73
2023/11/07 01:31:32;;;;;;;;;;;;;;;8.44;100.00;100012.56;5031285;28;19933;-74
2023/11/07 01:34:00;;;;;;;;;;;;;;;8.43;100.00;100016.13;5033298;28;19928;-72
2023/11/07 01:36:27;;;;;;;;;;;;;;;8.39;100.00;100018.06;5014442;28;19929;-73
2023/11/07 01:38:55;;;;;;;;;;;;;;;8.35;100.00;100014.75;5027964;28;20321;-73
2023/11/07 01:41:22;;;;;;;;;;;;;;;8.33;100.00;100018.38;5031940;28;19925;-74
2023/11/07 01:43:49;;;;;;;;;;;;;;;8.32;100.00;100016.72;5029263;28;19993;-75
2023/11/07 01:46:16;;;;;;;;;;;;;;;8.29;100.00;100023.00;5024332;28;20382;-74
2023/11/07 01:48:43;;;;;;;;;;;;;;;8.27;100.00;100022.22;5028886;28;19925;-74
2023/11/07 01:51:11;;;;;;;;;;;;;;;8.25;100.00;100025.88;5031166;28;19925;-74
2023/11/07 01:53:38;;;;;;;;;;;;;;;8.18;100.00;100025.38;5023115;28;19991;-74
2023/11/07 01:56:06;;;;;;;;;;;;;;;8.18;100.00;100024.56;5023686;28;20019;-73
2023/11/07 01:58:33;;;;;;;;;;;;;;;8.17;100.00;100020.25;5050234;28;20486;-76
2023/11/07 02:01:00;;;;;;;;;;;;;;;8.19;100.00;100028.84;5028182;28;20024;-72
2023/11/07 02:03:30;;;;;;;;;;;;;;;8.22;100.00;100034.78;5025571;28;19975;-72
2023/11/07 02:06:07;;;;;;;;;;;;;;;8.22;100.00;100031.31;5028331;28;19937;-71
2023/11/07 02:08:34;;;;;;;;;;;;;;;8.19;100.00;100036.72;5023805;28;19936;-77
2023/11/07 02:11:01;;;;;;;;;;;;;;;8.16;100.00;100031.69;5013526;28;19972;-73
2023/11/07 02:13:28;;;;;;;;;;;;;;;8.11;100.00;100029.31;5028676;28;20039;-73
2023/11/07 02:15:55;;;;;;;;;;;;;;;8.07;100.00;100036.50;5026142;28;19925;-73
2023/11/07 02:18:23;;;;;;;;;;;;;;;8.06;100.00;100037.44;5027627;28;20461;-74
2023/11/07 02:20:51;;;;;;;;;;;;;;;8.05;100.00;100035.75;5024957;28;20656;-76
2023/11/07 02:23:19;;;;;;;;;;;;;;;8.00;100.00;100036.94;5028243;28;20010;-75
2023/11/07 02:25:50;;;;;;;;;;;;;;;8.01;100.00;100044.72;5026461;28;19929;-77
2023/11/07 02:28:17;;;;;;;;;;;;;;;7.98;100.00;100036.22;5026307;28;19929;-79
2023/11/07 02:30:45;;;;;;;;;;;;;;;7.96;100.00;100043.28;5032704;28;19947;-79
2023/11/07 02:33:14;;;;;;;;;;;;;;;7.92;100.00;100050.47;5045475;28;20422;-79
2023/11/07 02:35:41;;;;;;;;;;;;;;;7.92;100.00;100039.16;5034588;28;20289;-80
2023/11/07 02:38:10;;;;;;;;;;;;;;;7.94;100.00;100040.78;5048291;28;20446;-77
2023/11/07 02:40:38;;;;;;;;;;;;;;;7.94;100.00;100053.03;5029609;28;19925;-79
2023/11/07 02:43:05;;;;;;;;;;;;;;;7.92;100.00;100055.72;5014035;28;19924;-74
2023/11/07 02:45:34;;;;;;;;;;;;;;;7.91;100.00;100059.28;5035561;28;19964;-74
2023/11/07 02:48:01;;;;;;;;;;;;;;;7.92;100.00;100054.88;5034607;28;19983;-74
2023/11/07 02:50:30;;;;;;;;;;;;;;;7.89;100.00;100052.47;5034760;28;19929;-78
2023/11/07 02:52:58;;;;;;;;;;;;;;;7.85;100.00;100046.53;5035208;28;19936;-78
2023/11/07 02:55:25;;;;;;;;;;;;;;;7.85;100.00;100057.03;5028393;28;19925;-78
2023/11/07 02:57:53;;;;;;;;;;;;;;;7.84;100.00;100052.72;5033587;28;19982;-77
2023/11/07 03:00:20;;;;;;;;;;;;;;;7.85;100.00;100055.25;5034393;28;19937;-78
2023/11/07 03:02:48;;;;;;;;;;;;;;;7.84;100.00;100060.59;5032026;28;19968;-77
2023/11/07 03:05:15;;;;;;;;;;;;;;;7.86;100.00;100058.69;5032612;28;19969;-77
2023/11/07 03:07:43;;;;;;;;;;;;;;;7.87;100.00;100060.38;5043246;28;19933;-76
2023/11/07 03:10:10;;;;;;;;;;;;;;;7.84;100.00;100058.81;5031285;28;19933;-75
2023/11/07 03:12:37;;;;;;;;;;;;;;;7.83;100.00;100066.72;5028987;28;19979;-79
2023/11/07 03:15:04;;;;;;;;;;;;;;;7.85;100.00;100075.38;5028238;28;19960;-75
2023/11/07 03:17:31;;;;;;;;;;;;;;;7.85;100.00;100068.34;5014275;28;19987;-76
2023/11/07 03:19:58;;;;;;;;;;;;;;;7.86;100.00;100067.41;5029307;28;19969;-74
2023/11/07 03:22:26;;;;;;;;;;;;;;;7.86;100.00;100074.44;5012103;28;20360;-73
2023/11/07 03:24:54;;;;;;;;;;;;;;;7.85;100.00;100073.59;5025511;28;19933;-73
2023/11/07 03:27:21;;;;;;;;;;;;;;;7.83;100.00;100082.44;5030352;28;20272;-74
2023/11/07 03:29:48;;;;;;;;;;;;;;;7.84;100.00;100081.53;5030243;28;20512;-72
2023/11/07 03:32:15;;;;;;;;;;;;;;;7.81;100.00;100085.16;5011290;28;19937;-74
2023/11/07 03:34:42;;;;;;;;;;;;;;;7.77;100.00;100080.19;5025948;28;20012;-75
2023/11/07 03:37:09;;;;;;;;;;;;;;;7.77;100.00;100078.41;5015726;28;19968;-75
2023/11/07 03:39:36;;;;;;;;;;;;;;;7.75;100.00;100080.28;5032662;28;20015;-75
2023/11/07 03:42:04;;;;;;;;;;;;;;;7.69;100.00;100088.47;5028507;28;19956;-77
2023/11/07 03:44:33;;;;;;;;;;;;;;;7.69;100.00;100095.47;5032712;28;19933;-76
2023/11/07 03:47:00;;;;;;;;;;;;;;;7.69;100.00;100091.09;5026960;28;19974;-76
2023/11/07 03:49:28;;;;;;;;;;;;;;;7.67;100.00;100090.34;5029756;28;19925;-75
2023/11/07 03:51:55;;;;;;;;;;;;;;;7.69;100.00;100092.88;5022855;28;20395;-75
2023/11/07 03:54:23;;;;;;;;;;;;;;;7.66;100.00;100093.06;5026730;28;20430;-79
2023/11/07 03:56:50;;;;;;;;;;;;;;;7.67;100.00;100092.13;5033966;28;19955;-79
2023/11/07 03:59:18;;;;;;;;;;;;;;;7.67;100.00;100100.81;5033752;28;19932;-74
2023/11/07 04:01:45;;;;;;;;;;;;;;;7.68;100.00;100097.25;5029258;28;20429;-74
2023/11/07 04:04:12;;;;;;;;;;;;;;;7.66;100.00;100099.13;5012656;28;20012;-82
2023/11/07 04:06:39;;;;;;;;;;;;;;;7.60;100.00;100095.06;5027348;28;20480;-80
2023/11/07 04:09:07;;;;;;;;;;;;;;;7.60;100.00;100104.69;5036005;28;19979;-78
2023/11/07 04:11:35;;;;;;;;;;;;;;;7.59;100.00;100105.63;5036318;28;19933;-83
2023/11/07 04:14:03;;;;;;;;;;;;;;;7.59;100.00;100103.00;5027576;28;19964;-74
2023/11/07 04:16:33;;;;;;;;;;;;;;;7.60;100.00;100096.84;5038854;28;20612;-76
2023/11/07 04:19:00;;;;;;;;;;;;;;;7.56;100.00;100111.03;5039082;28;20331;-78
2023/11/07 04:21:27;;;;;;;;;;;;;;;7.55;100.00;100097.09;5056237;28;19975;-76
2023/11/07 04:23:54;;;;;;;;;;;;;;;7.56;100.00;100096.16;5043833;28;19971;-77
2023/11/07 04:26:21;;;;;;;;;;;;;;;7.55;100.00;100109.34;5008598;28;19940;-80
2023/11/07 04:28:48;;;;;;;;;;;;;;;7.50;100.00;100109.59;5032933;28;19960;-80
2023/11/07 04:31:15;;;;;;;;;;;;;;;7.53;100.00;100113.84;5020146;28;19964;-75
2023/11/07 04:33:43;;;;;;;;;;;;;;;7.48;100.00;100116.69;5033713;28;19936;-79
2023/11/07 04:36:10;;;;;;;;;;;;;;;7.52;100.00;100117.34;5032669;28;19925;-82
2023/11/07 04:38:41;;;;;;;;;;;;;;;7.49;100.00;100123.63;5035728;28;19972;-81
2023/11/07 04:41:10;;;;;;;;;;;;;;;7.50;100.00;100127.09;5030975;28;19960;-76
2023/11/07 04:43:37;;;;;;;;;;;;;;;7.48;100.00;100129.81;5027897;28;19937;-83
2023/11/07 04:46:04;;;;;;;;;;;;;;;7.46;100.00;100125.56;5038365;28;19928;-79
2023/11/07 04:48:34;;;;;;;;;;;;;;;7.48;100.00;100128.97;5033948;28;19964;-73
2023/11/07 04:51:02;;;;;;;;;;;;;;;7.46;100.00;100121.16;5034250;28;19971;-76
2023/11/07 04:53:30;;;;;;;;;;;;;;;7.44;100.00;100127.44;5033251;28;19924;-76
2023/11/07 04:55:57;;;;;;;;;;;;;;;7.43;100.00;100130.94;5018315;28;19975;-76
2023/11/07 04:58:26;;;;;;;;;;;;;;;7.44;100.00;100127.44;5035163;28;21173;-79
2023/11/07 05:00:54;;;;;;;;;;;;;;;7.46;100.00;100125.56;5032010;28;20316;-73
2023/11/07 05:03:21;;;;;;;;;;;;;;;7.46;100.00;100129.00;5012348;28;19937;-71
2023/11/07 05:06:01;;;;;;;;;;;;;;;7.46;100.00;100125.56;5029696;28;20013;-71
2023/11/07 05:08:29;;;;;;;;;;;;;;;7.43;100.00;100125.72;5029988;28;20019;-70
2023/11/07 05:10:56;;;;;;;;;;;;;;;7.45;100.00;100127.34;5038381;28;19969;-70
2023/11/07 05:13:23;;;;;;;;;;;;;;;7.49;100.00;100126.25;5030890;28;20370;-72
2023/11/07 05:15:50;;;;;;;;;;;;;;;7.46;100.00;100123.78;5026632;28;19967;-70
2023/11/07 05:18:17;;;;;;;;;;;;;;;7.47;100.00;100125.47;5012150;28;19925;-70
2023/11/07 05:20:44;;;;;;;;;;;;;;;7.49;100.00;100130.63;5028866;28;20330;-69
2023/11/07 05:23:11;;;;;;;;;;;;;;;7.49;100.00;100123.63;5040589;28;19993;-69
2023/11/07 05:25:39;;;;;;;;;;;;;;;7.51;100.00;100124.38;5030782;28;19933;-69
2023/11/07 05:28:06;;;;;;;;;;;;;;;7.51;100.00;100131.38;5031600;28;19971;-70
2023/11/07 05:30:33;;;;;;;;;;;;;;;7.52;100.00;100130.44;5030253;28;20012;-70
2023/11/07 05:33:00;;;;;;;;;;;;;;;7.53;100.00;100132.16;5030883;28;19932;-70
2023/11/07 05:35:27;;;;;;;;;;;;;;;7.56;100.00;100137.22;5028596;28;19964;-70
2023/11/07 05:37:55;;;;;;;;;;;;;;;7.54;100.00;100147.78;5030729;28;19932;-69
2023/11/07 05:40:24;;;;;;;;;;;;;;;7.53;100.00;100137.41;5031528;28;19979;-68
2023/11/07 05:42:52;;;;;;;;;;;;;;;7.54;100.00;100137.31;5035439;28;19966;-70
2023/11/07 05:45:19;;;;;;;;;;;;;;;7.52;100.00;100146.16;5025992;28;19925;-69
2023/11/07 05:47:46;;;;;;;;;;;;;;;7.53;100.00;100143.50;5029439;28;20011;-70
2023/11/07 05:50:13;;;;;;;;;;;;;;;7.55;100.00;100146.00;5029526;28;20016;-69
2023/11/07 05:52:40;;;;;;;;;;;;;;;7.51;100.00;100155.81;5021660;28;20423;-72
2023/11/07 05:55:08;;;;;;;;;;;;;;;7.53;100.00;100161.81;5022786;28;19925;-70
2023/11/07 05:57:35;;;;;;;;;;;;;;;7.52;100.00;100159.25;5027338;28;20467;-70
2023/11/07 06:00:06;;;;;;;;;;;;;;;7.53;100.00;100163.59;5029625;28;20333;-69
2023/11/07 06:02:33;;;;;;;;;;;;;;;7.51;100.00;100168.91;5029992;28;20434;-70
2023/11/07 06:05:00;;;;;;;;;;;;;;;7.50;100.00;100172.44;5024821;28;19959;-69
2023/11/07 06:07:27;;;;;;;;;;;;;;;7.49;100.00;100169.94;5026035;28;19960;-69
2023/11/07 06:09:55;;;;;;;;;;;;;;;7.49;100.00;100168.16;5026291;28;20465;-73
2023/11/07 06:12:22;;;;;;;;;;;;;;;7.45;100.00;100171.00;5015005;28;20415;-74
2023/11/07 06:14:49;;;;;;;;;;;;;;;7.46;100.00;100176.16;5027877;28;19932;-65
2023/11/07 06:17:17;;;;;;;;;;;;;;;7.46;100.00;100181.41;5023381;28;20372;-68
2023/11/07 06:19:46;;;;;;;;;;;;;;;7.46;100.00;100177.94;5008470;28;19932;-70
2023/11/07 06:22:16;;;;;;;;;;;;;;;7.47;100.00;100188.31;5027354;28;19956;-71
2023/11/07 06:24:44;;;;;;;;;;;;;;;7.45;100.00;100184.94;5029151;28;20249;-71
2023/11/07 06:27:11;;;;;;;;;;;;;;;7.42;100.00;100192.97;5011469;28;19975;-73
2023/11/07 06:29:46;;;;;;;;;;;;;;;7.44;100.00;100188.50;5022763;28;20433;-74
2023/11/07 06:32:13;;;;;;;;;;;;;;;7.46;100.00;100197.09;5041321;28;19964;-67
2023/11/07 06:34:40;;;;;;;;;;;;;;;7.47;100.00;100196.19;5031313;28;19925;-70
2023/11/07 06:37:09;;;;;;;;;;;;;;;7.45;100.00;100192.81;5029758;28;19991;-68
2023/11/07 06:39:36;;;;;;;;;;;;;;;7.47;100.00;100200.56;5026309;28;20011;-68
2023/11/07 06:42:04;;;;;;;;;;;;;;;7.49;100.00;100198.72;5026974;28;19961;-73
2023/11/07 06:44:31;;;;;;;;;;;;;;;7.50;100.00;100200.41;5034368;28;20066;-65
2023/11/07 06:46:58;;;;;;;;;;;;;;;7.58;100.00;100213.97;5013260;28;19984;-67
2023/11/07 06:49:25;;;;;;;;;;;;;;;7.59;100.00;100216.50;5031591;28;20051;-70
2023/11/07 06:51:52;;;;;;;;;;;;;;;7.66;100.00;100218.81;5034673;28;20039;-68
2023/11/07 06:54:19;;;;;;;;;;;;;;;7.66;100.00;100213.56;5011283;28;19948;-74
2023/11/07 06:56:46;;;;;;;;;;;;;;;7.70;100.00;100213.31;5010994;28;19963;-72
2023/11/07 06:59:14;;;;;;;;;;;;;;;7.76;100.00;100212.97;5012568;28;20011;-68
2023/11/07 07:01:41;;;;;;;;;;;;;;;7.81;100.00;100213.56;5025640;28;19925;-73
2023/11/07 07:04:09;;;;;;;;;;;;;;;7.81;100.00;100213.56;5026475;28;19965;-69
2023/11/07 07:06:37;;;;;;;;;;;;;;;7.80;100.00;100209.25;4995112;28;19934;-67
2023/11/07 07:09:04;;;;;;;;;;;;;;;7.83;100.00;100209.13;4991623;28;19925;-69
2023/11/07 07:11:32;;;;;;;;;;;;;;;7.86;100.00;100210.69;5027029;28;20395;-70
2023/11/07 07:13:59;;;;;;;;;;;;;;;7.86;100.00;100211.53;5011253;28;19964;-68
2023/11/07 07:16:30;;;;;;;;;;;;;;;7.92;100.00;100215.59;5029183;28;20035;-68
2023/11/07 07:18:57;;;;;;;;;;;;;;;7.98;100.00;100217.06;4992506;28;20770;-69
2023/11/07 07:21:25;;;;;;;;;;;;;;;8.00;100.00;100210.78;5003160;28;20056;-70
2023/11/07 07:23:52;;;;;;;;;;;;;;;8.02;100.00;100216.81;5003409;28;19937;-70
2023/11/07 07:26:22;;;;;;;;;;;;;;;8.10;100.00;100224.22;5025308;28;19955;-71
2023/11/07 07:28:52;;;;;;;;;;;;;;;8.16;100.00;100220.44;5029995;28;19987;-64
2023/11/07 07:31:27;;;;;;;;;;;;;;;8.21;100.00;100221.03;5029269;28;19925;-70
2023/11/07 07:33:56;;;;;;;;;;;;;;;8.29;100.00;100218.84;5022669;28;20056;-72
2023/11/07 07:36:23;;;;;;;;;;;;;;;8.31;100.00;100228.28;5026227;28;20020;-72
2023/11/07 07:38:52;;;;;;;;;;;;;;;8.39;100.00;100221.81;5028131;28;20028;-66
2023/11/07 07:41:22;;;;;;;;;;;;;;;8.50;100.00;100215.00;5016871;28;19965;-68
2023/11/07 07:43:49;;;;;;;;;;;;;;;8.56;100.00;100226.97;5025221;28;20367;-72
2023/11/07 07:46:17;;;;;;;;;;;;;;;8.50;100.00;100228.13;5026788;28;20173;-70
2023/11/07 07:48:45;;;;;;;;;;;;;;;8.54;100.00;100239.31;5041897;28;20023;-72
2023/11/07 07:51:13;;;;;;;;;;;;;;;8.63;100.00;100237.00;5026708;28;19960;-70
2023/11/07 07:53:41;;;;;;;;;;;;;;;8.65;100.00;100231.69;5032350;28;19939;-69
2023/11/07 07:56:13;;;;;;;;;;;;;;;8.77;100.00;100241.47;5012797;28;20043;-69
2023/11/07 07:58:42;;;;;;;;;;;;;;;8.78;100.00;100245.78;5029702;28;19959;-69
2023/11/07 08:01:09;;;;;;;;;;;;;;;8.96;100.00;100232.50;5028271;28;20448;-70
2023/11/07 08:03:38;;;;;;;;;;;;;;;9.14;100.00;100241.97;5029901;28;19924;-69
2023/11/07 08:06:05;;;;;;;;;;;;;;;9.19;100.00;100226.78;5040379;28;20367;-70
2023/11/07 08:08:32;;;;;;;;;;;;;;;9.28;100.00;100235.88;5029513;28;19928;-73
2023/11/07 08:10:59;;;;;;;;;;;;;;;9.34;100.00;100232.88;4994894;28;20237;-69
2023/11/07 08:13:28;;;;;;;;;;;;;;;9.30;100.00;100247.97;5012893;28;19925;-69
2023/11/07 08:15:56;;;;;;;;;;;;;;;9.43;100.00;100237.59;5015312;28;20008;-67
2023/11/07 08:18:23;;;;;;;;;;;;;;;9.53;100.00;100243.13;5026759;28;20380;-72
2023/11/07 08:20:50;;;;;;;;;;;;;;;9.58;100.00;100246.31;5025818;28;20032;-73
2023/11/07 08:23:18;;;;;;;;;;;;;;;9.77;100.00;100246.91;5026144;28;20061;-68
2023/11/07 08:25:45;;;;;;;;;;;;;;;9.91;100.00;100238.16;5031148;28;19937;-69
2023/11/07 08:28:12;;;;;;;;;;;;;;;10.03;100.00;100250.50;5007197;28;20652;-70
2023/11/07 08:30:43;;;;;;;;;;;;;;;10.14;99.90;100249.88;5026350;28;19971;-68
2023/11/07 08:33:12;;;;;;;;;;;;;;;10.25;98.78;100257.09;5028036;28;19932;-68
2023/11/07 08:35:40;;;;;;;;;;;;;;;10.28;98.63;100260.38;5030105;28;19975;-68
2023/11/07 08:38:07;;;;;;;;;;;;;;;10.44;97.93;100262.03;5010607;28;20019;-68
2023/11/07 08:40:35;;;;;;;;;;;;;;;10.46;96.50;100254.91;5026224;28;20302;-73
2023/11/07 08:43:03;;;;;;;;;;;;;;;10.45;96.89;100256.69;5046402;28;19925;-72
2023/11/07 08:45:32;;;;;;;;;;;;;;;10.33;97.56;100257.47;5031602;28;19964;-69
2023/11/07 08:47:59;;;;;;;;;;;;;;;10.50;95.91;100253.75;5016802;28;20004;-68
2023/11/07 08:50:26;;;;;;;;;;;;;;;10.50;95.50;100261.66;5028733;28;20383;-69
2023/11/07 08:52:53;;;;;;;;;;;;;;;10.53;95.27;100251.75;5028535;28;19999;-74
2023/11/07 08:55:21;;;;;;;;;;;;;;;10.77;95.05;100262.50;5030235;28;19998;-72
2023/11/07 08:57:49;;;;;;;;;;;;;;;10.78;93.46;100258.06;5011766;28;20418;-72
2023/11/07 09:00:23;;;;;;;;;;;;;;;10.72;94.21;100266.38;5020220;28;19939;-70
2023/11/07 09:02:51;;;;;;;;;;;;;;;10.90;92.97;100260.75;5015123;28;20403;-69
2023/11/07 09:05:19;;;;;;;;;;;;;;;11.14;91.76;100265.31;5027465;28;20457;-70
2023/11/07 09:07:46;;;;;;;;;;;;;;;11.46;91.19;100264.94;5037761;28;20409;-68
2023/11/07 09:10:13;;;;;;;;;;;;;;;11.35;89.94;100265.66;5021532;28;20017;-71
2023/11/07 09:12:41;;;;;;;;;;;;;;;11.27;90.87;100271.44;5030739;28;19925;-68
2023/11/07 09:15:10;;;;;;;;;;;;;;;11.18;90.13;100279.13;5025453;28;19975;-70
2023/11/07 09:17:39;;;;;;;;;;;;;;;11.58;89.03;100272.84;5012042;28;20170;-66
2023/11/07 09:20:09;;;;;;;;;;;;;;;11.38;89.10;100281.25;5032503;28;20139;-69
2023/11/07 09:22:36;;;;;;;;;;;;;;;11.49;88.55;100291.09;5029310;28;20020;-69
2023/11/07 09:25:04;;;;;;;;;;;;;;;11.63;88.09;100280.44;5023326;28;20015;-74
2023/11/07 09:27:31;;;;;;;;;;;;;;;11.84;86.52;100280.75;5034854;28;19971;-70
2023/11/07 09:29:59;;;;;;;;;;;;;;;11.82;87.03;100278.25;5029399;28;20447;-70
2023/11/07 09:32:26;;;;;;;;;;;;;;;11.80;86.08;100277.50;5001285;28;19941;-70
2023/11/07 09:34:57;;;;;;;;;;;;;;;12.03;86.77;100278.53;5036607;28;20024;-67
2023/11/07 09:37:24;;;;;;;;;;;;;;;12.13;85.98;100282.22;5029234;28;20046;-69
2023/11/07 09:39:51;;;;;;;;;;;;;;;12.15;84.78;100280.28;5034301;28;20376;-70
2023/11/07 09:42:18;;;;;;;;;;;;;;;12.13;84.70;100284.84;5014331;28;21019;-69
2023/11/07 09:44:47;;;;;;;;;;;;;;;12.00;84.22;100276.13;5033298;28;20335;-69
2023/11/07 09:47:14;;;;;;;;;;;;;;;11.82;84.98;100280.00;5030660;28;19929;-69
2023/11/07 09:49:41;;;;;;;;;;;;;;;11.88;84.33;100293.63;5030433;28;19956;-70
2023/11/07 09:52:09;;;;;;;;;;;;;;;11.94;84.68;100281.00;5028622;28;19932;-68
2023/11/07 09:54:36;;;;;;;;;;;;;;;12.19;83.23;100272.16;5043790;28;19975;-73
2023/11/07 09:57:08;;;;;;;;;;;;;;;11.97;83.75;100278.94;5028338;28;20411;-73
2023/11/07 09:59:41;;;;;;;;;;;;;;;12.01;83.30;100282.22;5015125;28;19964;-72
2023/11/07 10:02:08;;;;;;;;;;;;;;;11.82;83.74;100277.38;5019508;28;20010;-71
2023/11/07 10:04:36;;;;;;;;;;;;;;;11.97;84.35;100276.31;5022474;28;20020;-73
2023/11/07 10:07:03;;;;;;;;;;;;;;;11.84;82.87;100280.75;5004829;28;20494;-68
2023/11/07 10:09:31;;;;;;;;;;;;;;;11.91;82.83;100268.84;5023249;28;20348;-71
2023/11/07 10:11:58;;;;;;;;;;;;;;;11.62;84.30;100270.84;5003017;28;19961;-68
2023/11/07 10:14:26;;;;;;;;;;;;;;;11.62;84.81;100276.13;5024891;28;20389;-74
2023/11/07 10:16:54;;;;;;;;;;;;;;;11.52;84.46;100267.97;5018597;28;19925;-70
2023/11/07 10:19:22;;;;;;;;;;;;;;;11.54;85.01;100276.63;5021162;28;20006;-70
2023/11/07 10:21:50;;;;;;;;;;;;;;;11.82;84.73;100272.09;4991816;28;19961;-73
2023/11/07 10:24:18;;;;;;;;;;;;;;;11.94;83.89;100273.06;5029482;28;19928;-68
2023/11/07 10:26:52;;;;;;;;;;;;;;;11.66;84.04;100275.81;5011235;28;20425;-73
2023/11/07 10:29:25;;;;;;;;;;;;;;;11.70;83.98;100279.06;5027450;28;19933;-71
2023/11/07 10:31:59;;;;;;;;;;;;;;;11.80;83.80;100264.31;5012712;28;19929;-72
2023/11/07 10:34:26;;;;;;;;;;;;;;;11.74;83.67;100271.78;5024356;28;20002;-73
2023/11/07 10:36:54;;;;;;;;;;;;;;;11.91;82.73;100264.41;5017097;28;19996;-72
2023/11/07 10:39:24;;;;;;;;;;;;;;;12.12;82.96;100269.97;5028133;28;19967;-72
2023/11/07 10:41:58;;;;;;;;;;;;;;;12.53;82.78;100258.22;5026976;28;20122;-71
2023/11/07 10:44:28;;;;;;;;;;;;;;;12.44;81.21;100269.47;5027703;28;20335;-73
2023/11/07 10:47:00;;;;;;;;;;;;;;;12.70;79.71;100266.69;5013305;28;20016;-69
2023/11/07 10:49:30;;;;;;;;;;;;;;;12.73;78.80;100272.59;5029713;28;20059;-72
2023/11/07 10:51:58;;;;;;;;;;;;;;;12.30;79.93;100275.75;5006442;28;20328;-72
2023/11/07 10:54:30;;;;;;;;;;;;;;;12.63;80.02;100261.88;5025559;28;20447;-72
2023/11/07 10:57:05;;;;;;;;;;;;;;;12.72;78.68;100267.44;5013648;28;20032;-72
2023/11/07 10:59:34;;;;;;;;;;;;;;;12.97;77.73;100275.25;5023893;28;19929;-71
2023/11/07 11:02:02;;;;;;;;;;;;;;;12.85;77.56;100268.22;5021157;28;20032;-77
2023/11/07 11:04:31;;;;;;;;;;;;;;;12.79;77.07;100263.38;5009001;28;19929;-73
2023/11/07 11:07:02;;;;;;;;;;;;;;;12.72;78.06;100255.09;5025692;28;20028;-71
2023/11/07 11:09:29;;;;;;;;;;;;;;;12.91;77.32;100262.47;5024756;28;20295;-72
2023/11/07 11:11:57;;;;;;;;;;;;;;;12.92;77.57;100257.09;5025573;28;19948;-73
2023/11/07 11:14:25;;;;;;;;;;;;;;;12.85;77.14;100258.50;5024212;28;20163;-73
2023/11/07 11:16:53;;;;;;;;;;;;;;;13.13;77.20;100264.38;5025755;28;19937;-73
2023/11/07 11:19:24;;;;;;;;;;;;;;;13.11;75.60;100259.22;5021199;28;20395;-71
2023/11/07 11:22:21;;;;;;;;;;;;;;;13.33;75.45;100257.63;5022816;28;19933;-71
2023/11/07 11:25:08;;;;;;;;;;;;;;;13.08;76.18;100255.94;4996528;28;19925;-76
2023/11/07 11:27:36;;;;;;;;;;;;;;;13.14;77.21;100253.66;5020812;28;20024;-72
2023/11/07 11:30:05;;;;;;;;;;;;;;;13.47;75.00;100246.81;5010448;28;20027;-76
2023/11/07 11:32:32;;;;;;;;;;;;;;;13.54;74.52;100249.81;5022207;28;19968;-73
2023/11/07 11:35:15;;;;;;;;;;;;;;;13.75;73.89;100242.88;5012247;28;20376;-70
2023/11/07 11:38:01;;;;;;;;;;;;;;;13.41;73.46;100265.78;5026016;28;19932;-71
2023/11/07 11:40:49;;;;;;;;;;;;;;;13.30;74.73;100257.84;5031579;28;20424;-71
2023/11/07 11:43:17;;;;;;;;;;;;;;;13.41;74.18;100248.13;5025751;28;20019;-71
2023/11/07 11:45:45;;;;;;;;;;;;;;;13.18;74.22;100265.69;5023317;28;19933;-76
2023/11/07 11:48:13;;;;;;;;;;;;;;;13.06;75.19;100268.44;5017793;28;20012;-76
2023/11/07 11:50:41;;;;;;;;;;;;;;;12.88;75.22;100258.28;5006704;28;19933;-70
2023/11/07 11:53:09;;;;;;;;;;;;;;;12.94;74.91;100256.97;4991889;28;20015;-73
2023/11/07 11:56:12;;;;;;;;;;;;;;;13.49;73.51;100254.63;5009345;28;19998;-69
2023/11/07 11:58:39;;;;;;;;;;;;;;;14.52;68.13;100257.97;4939263;28;19964;-70
2023/11/07 12:01:06;;;;;;;;;;;;;;;14.63;64.63;100264.09;5013510;28;19968;-68
2023/11/07 12:03:42;;;;;;;;;;;;;;;15.26;62.89;100261.50;5039767;28;20417;-70
2023/11/07 12:06:10;;;;;;;;;;;;;;;17.39;57.91;100250.63;5025108;28;19925;-69
2023/11/07 12:08:38;;;;;;;;;;;;;;;19.63;51.00;100253.56;4992584;28;19925;-67
2023/11/07 12:11:06;;;;;;;;;;;;;;;20.92;45.59;100256.88;5043229;28;19958;-72
2023/11/07 12:13:33;;;;;;;;;;;;;;;20.06;47.57;100259.81;5027949;28;19965;-71
2023/11/07 12:16:18;;;;;;;;;;;;;;;19.77;48.03;100258.34;5002536;28;19972;-72
2023/11/07 12:18:47;;;;;;;;;;;;;;;18.82;48.57;100259.06;5008436;28;19933;-72
2023/11/07 12:21:25;;;;;;;;;;;;;;;17.26;52.60;100253.59;4999606;28;19965;-76
2023/11/07 12:23:53;;;;;;;;;;;;;;;16.38;55.01;100262.47;5036671;28;19982;-70
2023/11/07 12:26:23;;;;;;;;;;;;;;;16.57;56.87;100251.03;5035897;28;20011;-70
2023/11/07 12:28:50;;;;;;;;;;;;;;;16.81;55.66;100254.16;5014489;28;20399;-71
2023/11/07 12:31:20;;;;;;;;;;;;;;;17.34;54.36;100253.72;5031881;28;19960;-68
2023/11/07 12:33:51;;;;;;;;;;;;;;;18.46;51.15;100261.69;5043686;28;19956;-70
2023/11/07 12:36:19;;;;;;;;;;;;;;;18.33;49.90;100256.72;5029946;28;20008;-71
2023/11/07 12:38:46;;;;;;;;;;;;;;;17.66;52.33;100240.03;5030087;28;20043;-70
2023/11/07 12:41:13;;;;;;;;;;;;;;;17.11;53.71;100247.88;5041824;28;19975;-71
2023/11/07 12:43:40;;;;;;;;;;;;;;;16.24;55.74;100246.91;5033544;28;19929;-74